createdAt,value
2019-01-19T00:01:00.658Z,10.45
2019-01-19T00:03:47.056Z,10.05
2019-01-19T00:06:38.029Z,9.00
2019-01-19T00:09:16.237Z,8.53
2019-01-19T00:11:59.426Z,8.95
2019-01-19T00:14:32.766Z,7.30
2019-01-19T00:17:10.330Z,9.38
2019-01-19T00:19:58.095Z,10.35
2019-01-19T00:22:44.591Z,7.25
2019-01-19T00:25:32.381Z,7.15
2019-01-19T00:28:20.184Z,9.10
2019-01-19T00:30:51.842Z,9.55
2019-01-19T00:33:27.465Z,9.83
2019-01-19T00:36:14.083Z,9.33
2019-01-19T00:39:00.426Z,7.92
2019-01-19T00:41:38.054Z,8.00
2019-01-19T00:44:17.079Z,11.05
2019-01-19T00:47:03.591Z,9.08
2019-01-19T00:49:37.777Z,8.30
2019-01-19T00:52:27.405Z,9.48
2019-01-19T00:55:15.192Z,9.55
2019-01-19T00:57:57.642Z,6.65
2019-01-19T01:00:35.480Z,9.88
2019-01-19T01:03:07.854Z,9.58
2019-01-19T01:05:55.801Z,10.35
2019-01-19T01:08:42.152Z,12.20
2019-01-19T01:11:23.025Z,7.72
2019-01-19T01:13:59.696Z,9.88
2019-01-19T01:16:59.557Z,8.40
2019-01-19T01:19:35.664Z,8.85
2019-01-19T01:22:18.922Z,8.55
2019-01-19T01:25:10.029Z,8.20
2019-01-19T01:27:42.080Z,10.75
2019-01-19T01:30:27.885Z,11.05
2019-01-19T01:33:18.654Z,8.18
2019-01-19T01:36:06.436Z,12.30
2019-01-19T01:38:54.276Z,8.95
2019-01-19T01:41:45.461Z,11.30
2019-01-19T01:44:36.307Z,9.55
2019-01-19T01:47:22.993Z,9.43
2019-01-19T01:50:13.721Z,12.68
2019-01-19T01:52:52.214Z,13.50
2019-01-19T01:55:26.565Z,13.32
2019-01-19T01:58:14.374Z,10.55
2019-01-19T02:00:48.763Z,9.68
2019-01-19T02:03:42.617Z,12.90
2019-01-19T02:06:45.479Z,10.53
2019-01-19T02:09:35.529Z,12.53
2019-01-19T02:12:12.975Z,12.30
2019-01-19T02:14:56.171Z,13.18
2019-01-19T02:17:46.544Z,11.45
2019-01-19T02:20:27.417Z,13.22
2019-01-19T02:23:33.743Z,11.68
2019-01-19T02:26:24.704Z,14.68
2019-01-19T02:29:15.225Z,11.03
2019-01-19T02:31:53.482Z,15.55
2019-01-19T02:34:32.486Z,12.98
2019-01-19T02:37:23.852Z,16.93
2019-01-19T02:40:11.682Z,14.18
2019-01-19T02:42:43.620Z,16.93
2019-01-19T02:45:18.048Z,18.12
2019-01-19T02:48:04.418Z,17.57
2019-01-19T02:50:42.196Z,15.40
2019-01-19T02:53:28.768Z,19.75
2019-01-19T02:56:00.581Z,17.77
2019-01-19T02:58:54.750Z,18.10
2019-01-19T03:01:41.182Z,20.30
2019-01-19T03:04:34.084Z,19.32
2019-01-19T03:07:34.282Z,22.52
2019-01-19T03:10:22.540Z,20.48
2019-01-19T03:13:08.962Z,22.35
2019-01-19T03:15:48.069Z,21.93
2019-01-19T03:18:23.104Z,19.75
2019-01-19T03:21:05.942Z,20.92
2019-01-19T03:23:38.163Z,23.50
2019-01-19T03:26:26.021Z,22.07
2019-01-19T03:29:19.890Z,22.37
2019-01-19T03:32:22.920Z,21.55
2019-01-19T03:35:19.012Z,19.48
2019-01-19T03:38:14.385Z,24.80
2019-01-19T03:41:28.445Z,23.70
2019-01-19T03:44:15.843Z,29.18
2019-01-19T03:47:13.165Z,24.67
2019-01-19T03:50:07.857Z,26.02
2019-01-19T03:53:01.211Z,30.75
2019-01-19T03:56:07.356Z,23.02
2019-01-19T03:59:04.922Z,23.90
2019-01-19T04:02:08.380Z,24.30
2019-01-19T04:05:23.051Z,25.70
2019-01-19T04:08:28.293Z,25.43
2019-01-19T04:11:48.165Z,25.08
2019-01-19T04:15:01.695Z,27.58
2019-01-19T04:17:53.294Z,23.50
2019-01-19T04:20:44.843Z,23.30
2019-01-19T04:23:14.175Z,21.87
2019-01-19T04:25:54.407Z,26.45
2019-01-19T04:28:25.983Z,23.12
2019-01-19T04:30:55.235Z,21.55
2019-01-19T04:33:24.535Z,25.72
2019-01-19T04:35:53.820Z,26.15
2019-01-19T04:38:23.128Z,20.80
2019-01-19T04:40:52.492Z,30.25
2019-01-19T04:43:21.752Z,25.60
2019-01-19T04:45:51.053Z,23.80
2019-01-19T04:48:22.123Z,24.52
2019-01-19T04:50:51.392Z,22.17
2019-01-19T04:53:20.724Z,20.77
2019-01-19T04:55:49.991Z,21.82
2019-01-19T04:58:19.221Z,20.95
2019-01-19T05:00:48.596Z,20.57
2019-01-19T05:03:17.857Z,17.45
2019-01-19T05:05:47.116Z,16.35
2019-01-19T05:08:16.340Z,17.50
2019-01-19T05:10:45.583Z,14.80
2019-01-19T05:13:14.907Z,16.90
2019-01-19T05:15:44.079Z,16.82
2019-01-19T05:18:13.624Z,13.72
2019-01-19T05:20:42.781Z,15.32
2019-01-19T05:23:11.982Z,12.68
2019-01-19T05:25:41.244Z,13.53
2019-01-19T05:28:10.477Z,9.75
2019-01-19T05:30:39.798Z,13.43
2019-01-19T05:33:09.056Z,15.60
2019-01-19T05:35:38.362Z,9.93
2019-01-19T05:38:07.996Z,8.83
2019-01-19T05:40:37.193Z,10.38
2019-01-19T05:43:06.580Z,10.65
2019-01-19T05:45:35.800Z,10.48
2019-01-19T05:48:04.935Z,12.58
2019-01-19T05:50:34.345Z,12.23
2019-01-19T05:53:03.625Z,11.45
2019-01-19T05:55:32.800Z,8.60
2019-01-19T05:58:02.048Z,9.60
2019-01-19T06:00:33.676Z,10.93
2019-01-19T06:03:02.893Z,10.48
2019-01-19T06:05:32.187Z,10.25
2019-01-19T06:08:01.366Z,6.92
2019-01-19T06:10:30.648Z,8.58
2019-01-19T06:12:59.811Z,8.40
2019-01-19T06:15:28.967Z,6.75
2019-01-19T06:17:58.257Z,10.80
2019-01-19T06:20:27.501Z,7.37
2019-01-19T06:22:56.699Z,6.58
2019-01-19T06:25:25.903Z,7.28
2019-01-19T06:27:55.068Z,6.33
2019-01-19T06:30:24.956Z,7.58
2019-01-19T06:32:54.240Z,7.87
2019-01-19T06:35:23.403Z,9.70
2019-01-19T06:37:52.560Z,10.98
2019-01-19T06:40:21.762Z,9.53
2019-01-19T06:42:50.908Z,10.05
2019-01-19T06:45:22.785Z,9.03
2019-01-19T06:47:51.991Z,7.33
2019-01-19T06:50:40.436Z,7.25
2019-01-19T06:53:09.810Z,12.37
2019-01-19T06:55:39.156Z,10.58
2019-01-19T06:58:08.363Z,9.95
2019-01-19T07:00:37.700Z,9.25
2019-01-19T07:03:06.966Z,10.35
2019-01-19T07:05:36.172Z,8.88
2019-01-19T07:08:05.472Z,7.37
2019-01-19T07:10:34.811Z,10.03
2019-01-19T07:13:04.052Z,8.43
2019-01-19T07:15:33.409Z,10.00
2019-01-19T07:18:02.742Z,7.78
2019-01-19T07:20:32.037Z,8.75
2019-01-19T07:23:01.342Z,8.53
2019-01-19T07:25:30.669Z,8.70
2019-01-19T07:27:59.996Z,12.13
2019-01-19T07:30:29.228Z,8.50
2019-01-19T07:32:58.480Z,9.40
2019-01-19T07:35:27.702Z,9.30
2019-01-19T07:37:56.958Z,8.45
2019-01-19T07:40:27.029Z,9.60
2019-01-19T07:42:59.284Z,7.95
2019-01-19T07:45:28.507Z,8.15
2019-01-19T07:51:19.059Z,6.95
2019-01-19T07:53:48.581Z,7.08
2019-01-19T07:56:18.073Z,7.92
2019-01-19T07:58:47.449Z,7.15
2019-01-19T08:11:28.946Z,9.00
2019-01-19T08:13:58.410Z,10.78
2019-01-19T08:16:28.002Z,7.67
2019-01-19T08:18:57.457Z,7.33
2019-01-19T08:21:26.292Z,8.70
2019-01-19T08:23:55.965Z,8.53
2019-01-19T08:26:25.481Z,6.80
2019-01-19T08:28:55.016Z,8.83
2019-01-19T08:31:24.621Z,9.23
2019-01-19T08:33:55.694Z,5.70
2019-01-19T08:36:25.712Z,7.05
2019-01-19T08:38:55.153Z,7.35
2019-01-19T08:41:24.592Z,7.62
2019-01-19T08:43:59.909Z,5.72
2019-01-19T08:46:30.661Z,7.55
2019-01-19T08:49:14.420Z,6.78
2019-01-19T08:51:54.969Z,5.92
2019-01-19T08:54:24.257Z,6.58
2019-01-19T08:56:53.755Z,7.53
2019-01-19T08:59:23.101Z,8.80
2019-01-19T09:01:52.572Z,7.00
2019-01-19T09:04:26.021Z,7.95
2019-01-19T09:06:55.369Z,7.33
2019-01-19T09:09:24.758Z,12.10
2019-01-19T09:11:54.000Z,6.35
2019-01-19T09:14:27.469Z,6.03
2019-01-19T09:16:58.173Z,5.55
2019-01-19T09:19:27.665Z,7.12
2019-01-19T09:22:03.291Z,5.30
2019-01-19T09:24:38.286Z,5.17
2019-01-19T09:27:07.464Z,9.33
2019-01-19T09:29:36.263Z,11.15
2019-01-19T09:32:05.166Z,8.68
2019-01-19T09:34:36.919Z,7.97
2019-01-19T09:37:08.426Z,6.22
2019-01-19T09:39:37.403Z,4.92
2019-01-19T09:42:06.174Z,9.63
2019-01-19T09:44:35.070Z,7.35
2019-01-19T09:47:03.904Z,7.53
2019-01-19T09:49:32.731Z,5.50
2019-01-19T09:52:01.557Z,6.42
2019-01-19T09:54:30.277Z,6.35
2019-01-19T09:56:59.031Z,7.65
2019-01-19T09:59:27.779Z,8.50
2019-01-19T10:01:56.645Z,5.17
2019-01-19T10:04:25.489Z,7.37
2019-01-19T10:06:54.256Z,7.00
2019-01-19T10:09:23.238Z,5.60
2019-01-19T10:11:52.127Z,4.55
2019-01-19T10:14:20.936Z,4.35
2019-01-19T10:17:20.702Z,5.75
2019-01-19T10:19:49.458Z,5.17
2019-01-19T10:22:18.128Z,5.62
2019-01-19T10:24:46.807Z,4.97
2019-01-19T10:27:15.512Z,4.90
2019-01-19T10:29:44.213Z,4.70
2019-01-19T10:32:13.013Z,4.62
2019-01-19T10:34:41.842Z,5.42
2019-01-19T10:37:10.563Z,5.28
2019-01-19T10:39:39.337Z,5.37
2019-01-19T10:42:08.004Z,5.45
2019-01-19T10:44:36.711Z,6.37
2019-01-19T10:47:05.402Z,5.05
2019-01-19T10:49:34.090Z,5.12
2019-01-19T10:52:02.823Z,12.65
2019-01-19T10:54:31.657Z,6.58
2019-01-19T10:57:00.331Z,6.22
2019-01-19T10:59:28.948Z,4.80
2019-01-19T11:01:57.608Z,4.22
2019-01-19T11:04:26.342Z,4.92
2019-01-19T11:06:54.978Z,5.83
2019-01-19T11:09:23.685Z,6.15
2019-01-19T11:11:52.413Z,5.97
2019-01-19T11:14:21.128Z,3.75
2019-01-19T11:16:49.848Z,5.15
2019-01-19T11:19:18.463Z,4.08
2019-01-19T11:21:47.067Z,3.75
2019-01-19T11:24:15.770Z,3.60
2019-01-19T11:26:44.472Z,5.60
2019-01-19T11:29:13.150Z,3.67
2019-01-19T11:31:41.882Z,5.10
2019-01-19T11:34:10.970Z,4.10
2019-01-19T11:36:39.773Z,5.80
2019-01-19T11:39:08.545Z,5.50
2019-01-19T11:41:37.271Z,4.92
2019-01-19T11:44:06.005Z,4.65
2019-01-19T11:46:34.617Z,5.30
2019-01-19T11:49:03.342Z,5.83
2019-01-19T11:51:32.084Z,4.35
2019-01-19T11:54:00.854Z,4.50
2019-01-19T11:56:29.519Z,4.47
2019-01-19T11:58:58.218Z,5.37
2019-01-19T12:01:26.857Z,3.60
2019-01-19T12:03:55.567Z,4.08
2019-01-19T12:06:24.268Z,3.35
2019-01-19T12:08:52.970Z,4.80
2019-01-19T12:11:21.656Z,4.37
2019-01-19T12:13:50.357Z,3.90
2019-01-19T12:16:19.030Z,5.30
2019-01-19T12:18:47.728Z,4.97
2019-01-19T12:21:16.522Z,4.80
2019-01-19T12:23:45.254Z,4.72
2019-01-19T12:26:13.937Z,4.87
2019-01-19T12:28:42.646Z,4.40
2019-01-19T12:31:11.429Z,3.83
2019-01-19T12:33:40.156Z,6.15
2019-01-19T12:36:08.830Z,7.35
2019-01-19T12:38:37.522Z,4.72
2019-01-19T12:41:06.236Z,6.60
2019-01-19T12:43:34.943Z,5.78
2019-01-19T12:46:32.452Z,4.58
2019-01-19T12:52:11.254Z,4.85
2019-01-19T12:54:40.867Z,4.60
2019-01-19T12:57:09.627Z,4.50
2019-01-19T12:59:44.594Z,4.15
2019-01-19T13:02:13.395Z,4.72
2019-01-19T13:04:42.183Z,5.33
2019-01-19T13:07:12.348Z,6.05
2019-01-19T13:09:48.459Z,4.60
2019-01-19T13:12:31.698Z,3.62
2019-01-19T13:15:22.335Z,3.08
2019-01-19T13:18:03.608Z,3.20
2019-01-19T13:21:09.493Z,3.75
2019-01-19T13:23:55.652Z,3.72
2019-01-19T13:26:46.363Z,4.87
2019-01-19T13:29:36.936Z,4.95
2019-01-19T13:32:32.852Z,7.62
2019-01-19T13:35:19.611Z,5.15
2019-01-19T13:38:19.574Z,5.27
2019-01-19T13:44:44.912Z,5.40
2019-01-19T13:47:35.864Z,6.50
2019-01-19T13:53:48.318Z,8.70
2019-01-19T13:56:36.176Z,5.60
2019-01-19T13:59:22.946Z,3.90
2019-01-19T14:02:13.786Z,5.83
2019-01-19T14:04:56.513Z,4.95
2019-01-19T14:07:42.929Z,7.10
2019-01-19T14:10:21.196Z,5.28
2019-01-19T14:13:21.100Z,5.62
2019-01-19T14:16:11.448Z,5.43
2019-01-19T14:18:42.887Z,3.47
2019-01-19T14:21:23.995Z,9.03
2019-01-19T14:24:06.623Z,4.72
2019-01-19T14:26:39.273Z,4.92
2019-01-19T14:29:39.113Z,4.30
2019-01-19T14:32:25.807Z,6.53
2019-01-19T14:35:21.432Z,4.65
2019-01-19T14:37:57.337Z,6.25
2019-01-19T14:40:47.081Z,7.85
2019-01-19T14:43:53.219Z,8.35
2019-01-19T14:46:44.484Z,4.22
2019-01-19T15:04:32.796Z,7.22
2019-01-19T15:17:09.498Z,4.92
2019-01-19T15:19:56.632Z,4.45
2019-01-19T15:22:42.723Z,6.37
2019-01-19T15:25:16.084Z,5.70
2019-01-19T15:42:06.133Z,5.65
2019-01-19T15:44:54.076Z,6.00
2019-01-19T15:51:14.007Z,6.60
2019-01-19T15:53:49.449Z,6.90
2019-01-19T15:56:31.873Z,8.05
2019-01-19T16:12:03.257Z,7.80
2019-01-19T16:14:51.081Z,7.87
2019-01-19T16:17:38.953Z,7.87
2019-01-19T16:20:39.183Z,8.03
2019-01-19T16:34:03.304Z,10.28
2019-01-19T16:36:57.491Z,12.63
2019-01-19T16:39:48.707Z,56.02
2019-01-19T16:42:35.852Z,19.40
2019-01-19T16:45:39.139Z,18.57
2019-01-19T16:48:33.042Z,25.37
2019-01-19T16:51:20.880Z,18.15
2019-01-19T16:53:58.650Z,22.05
2019-01-19T16:56:32.218Z,22.73
2019-01-19T16:59:22.726Z,14.28
2019-01-19T17:02:04.598Z,14.68
2019-01-19T17:04:40.971Z,15.15
2019-01-19T17:07:27.370Z,15.20
2019-01-19T17:10:01.591Z,12.00
2019-01-19T17:12:49.394Z,17.25
2019-01-19T17:15:36.116Z,13.68
2019-01-19T17:18:26.714Z,15.60
2019-01-19T17:21:09.978Z,12.25
2019-01-19T17:24:00.939Z,12.25
2019-01-19T17:26:51.778Z,11.25
2019-01-19T17:29:42.474Z,11.43
2019-01-19T17:32:32.872Z,11.68
2019-01-19T17:35:25.561Z,11.00
2019-01-19T17:38:22.205Z,13.83
2019-01-19T17:50:46.494Z,11.70
2019-01-19T17:53:34.354Z,11.48
2019-01-19T17:56:25.782Z,11.63
2019-01-19T17:59:16.772Z,10.15
2019-01-19T18:02:07.172Z,14.38
2019-01-19T18:04:39.998Z,9.95
2019-01-19T18:07:42.882Z,12.25
2019-01-19T18:10:17.149Z,10.30
2019-01-19T18:13:03.432Z,11.73
2019-01-19T18:16:09.655Z,13.75
2019-01-19T18:19:12.646Z,11.53
2019-01-19T18:25:24.629Z,14.18
2019-01-19T18:28:20.160Z,11.75
2019-01-19T18:34:18.174Z,11.05
2019-01-19T18:36:55.910Z,13.98
2019-01-19T18:39:31.315Z,11.68
2019-01-19T18:42:19.205Z,12.70
2019-01-19T18:45:07.140Z,14.00
2019-01-19T18:47:58.189Z,17.00
2019-01-19T18:51:04.087Z,14.30
2019-01-19T18:53:58.061Z,14.15
2019-01-19T18:56:40.087Z,14.85
2019-01-19T18:59:26.950Z,12.30
2019-01-19T19:02:12.268Z,14.38
2019-01-19T19:04:58.786Z,12.20
2019-01-19T19:08:04.741Z,12.13
2019-01-19T19:10:51.270Z,14.70
2019-01-19T19:13:24.930Z,11.40
2019-01-19T19:16:12.940Z,16.35
2019-01-19T19:19:01.119Z,13.98
2019-01-19T19:21:39.704Z,12.33
2019-01-19T19:24:27.471Z,12.20
2019-01-19T19:27:18.384Z,14.28
2019-01-19T19:30:00.180Z,11.43
2019-01-19T19:32:51.003Z,12.60
2019-01-19T19:35:45.684Z,16.93
2019-01-19T19:38:36.527Z,10.95
2019-01-19T19:41:17.639Z,13.58
2019-01-19T19:44:05.465Z,17.00
2019-01-19T19:46:47.975Z,17.87
2019-01-19T19:49:41.894Z,18.30
2019-01-19T19:52:13.273Z,17.15
2019-01-19T19:54:50.198Z,18.77
2019-01-19T19:57:19.129Z,20.65
2019-01-19T19:59:47.912Z,16.40
2019-01-19T20:02:16.653Z,18.87
2019-01-19T20:04:45.594Z,19.10
2019-01-19T20:07:14.336Z,18.23
2019-01-19T20:09:43.067Z,21.60
2019-01-19T20:12:11.832Z,20.32
2019-01-19T20:14:40.536Z,18.77
2019-01-19T20:17:09.226Z,19.50
2019-01-19T20:19:37.909Z,18.32
2019-01-19T20:22:06.696Z,16.70
2019-01-19T20:24:35.472Z,21.77
2019-01-19T20:27:04.394Z,19.85
2019-01-19T20:29:33.139Z,17.35
2019-01-19T20:32:01.932Z,21.57
2019-01-19T20:34:30.740Z,17.10
2019-01-19T20:37:19.399Z,16.30
2019-01-19T20:39:48.056Z,18.07
2019-01-19T20:42:16.887Z,21.68
2019-01-19T20:44:45.635Z,18.17
2019-01-19T20:47:14.344Z,19.92
2019-01-19T20:49:43.058Z,16.07
2019-01-19T20:52:11.770Z,16.95
2019-01-19T20:54:40.598Z,16.93
2019-01-19T20:57:09.386Z,15.65
2019-01-19T20:59:38.069Z,16.45
2019-01-19T21:02:06.866Z,16.77
2019-01-19T21:04:35.553Z,20.10
2019-01-19T21:07:04.506Z,15.55
2019-01-19T21:09:33.743Z,16.02
2019-01-19T21:12:02.706Z,17.00
2019-01-19T21:14:31.526Z,16.65
2019-01-19T21:17:00.217Z,13.22
2019-01-19T21:19:29.007Z,14.78
2019-01-19T21:21:57.723Z,14.60
2019-01-19T21:24:26.427Z,15.10
2019-01-19T21:26:55.383Z,14.68
2019-01-19T21:29:24.141Z,14.47
2019-01-19T21:31:52.881Z,15.05
2019-01-19T21:34:21.630Z,14.58
2019-01-19T21:36:50.444Z,14.78
2019-01-19T21:39:19.284Z,16.17
2019-01-19T21:41:48.007Z,15.10
2019-01-19T21:44:16.774Z,15.25
2019-01-19T21:46:45.606Z,15.72
2019-01-19T21:49:14.397Z,18.70
2019-01-19T21:51:43.131Z,17.82
2019-01-19T21:54:11.858Z,12.53
2019-01-19T21:56:40.532Z,14.47
2019-01-19T21:59:09.286Z,17.17
2019-01-19T22:01:38.020Z,15.85
2019-01-19T22:04:06.729Z,14.65
2019-01-19T22:06:35.430Z,19.12
2019-01-19T22:09:05.180Z,14.63
2019-01-19T22:11:34.056Z,17.15
2019-01-19T22:14:02.765Z,16.10
2019-01-19T22:20:12.490Z,19.67
2019-01-19T22:22:42.084Z,21.15
2019-01-19T22:25:10.784Z,21.90
2019-01-19T22:27:42.567Z,20.65
2019-01-19T22:30:12.783Z,18.05
2019-01-19T22:32:41.572Z,14.20
2019-01-19T22:58:48.926Z,16.60
2019-01-19T23:01:57.660Z,16.12
2019-01-19T23:05:19.941Z,16.57
2019-01-19T23:15:12.213Z,17.12
2019-01-19T23:18:04.306Z,14.58
2019-01-19T23:28:16.195Z,15.88
2019-01-19T23:31:17.960Z,13.58
2019-01-19T23:34:33.028Z,15.15
2019-01-19T23:40:42.190Z,15.38
2019-01-19T23:43:39.977Z,21.17
2019-01-19T23:47:06.196Z,13.53
2019-01-19T23:50:14.481Z,18.85
2019-01-19T23:55:42.084Z,17.55
2019-01-19T23:58:30.121Z,15.38
